createdAt,value
2023-05-20T00:04:34.577Z,11.30
2023-05-20T00:09:59.513Z,11.30
2023-05-20T00:15:28.525Z,11.31
2023-05-20T00:20:53.520Z,11.31
2023-05-20T00:26:18.514Z,11.27
2023-05-20T00:31:48.608Z,11.28
2023-05-20T00:37:21.109Z,11.24
2023-05-20T00:42:46.539Z,11.23
2023-05-20T00:48:13.603Z,11.19
2023-05-20T00:53:39.517Z,11.18
2023-05-20T00:59:03.531Z,11.13
2023-05-20T01:04:31.934Z,11.10
2023-05-20T01:09:55.577Z,11.08
2023-05-20T01:15:22.610Z,11.05
2023-05-20T01:20:52.535Z,11.03
2023-05-20T01:26:20.538Z,11.00
2023-05-20T01:31:49.584Z,10.97
2023-05-20T01:37:16.524Z,10.94
2023-05-20T01:42:46.056Z,10.89
2023-05-20T01:48:11.639Z,10.89
2023-05-20T01:53:35.782Z,10.87
2023-05-20T01:59:03.624Z,10.91
2023-05-20T02:04:29.591Z,10.88
2023-05-20T02:09:55.690Z,10.86
2023-05-20T02:15:24.066Z,10.85
2023-05-20T02:20:49.560Z,10.85
2023-05-20T02:26:14.609Z,10.85
2023-05-20T02:31:42.571Z,10.86
2023-05-20T02:37:07.869Z,10.85
2023-05-20T02:42:32.563Z,10.84
2023-05-20T02:48:00.730Z,10.84
2023-05-20T02:53:25.568Z,10.84
2023-05-20T02:58:49.637Z,10.84
2023-05-20T03:04:18.702Z,10.85
2023-05-20T03:09:44.596Z,10.81
2023-05-20T03:15:10.624Z,10.81
2023-05-20T03:20:39.593Z,10.79
2023-05-20T03:26:04.595Z,10.81
2023-05-20T03:31:30.666Z,10.77
2023-05-20T03:36:58.617Z,10.78
2023-05-20T03:42:24.583Z,10.75
2023-05-20T03:47:49.678Z,10.77
2023-05-20T03:53:17.917Z,10.77
2023-05-20T03:58:45.632Z,10.79
2023-05-20T04:04:09.683Z,10.78
2023-05-20T04:09:37.613Z,10.84
2023-05-20T04:15:02.621Z,10.87
2023-05-20T04:20:42.627Z,10.91
2023-05-20T04:26:10.622Z,10.94
2023-05-20T04:31:35.644Z,10.96
2023-05-20T04:36:59.640Z,10.97
2023-05-20T04:42:28.627Z,11.00
2023-05-20T04:47:52.708Z,11.01
2023-05-20T04:53:18.632Z,11.04
2023-05-20T04:58:53.632Z,11.09
2023-05-20T05:04:18.773Z,11.09
2023-05-20T05:09:42.702Z,11.12
2023-05-20T05:15:10.653Z,11.14
2023-05-20T05:20:36.646Z,11.15
2023-05-20T05:26:02.943Z,11.14
2023-05-20T05:31:29.655Z,11.15
2023-05-20T06:38:49.706Z,12.06
2023-05-20T06:44:15.682Z,12.18
2023-05-20T06:50:03.714Z,12.29
2023-05-20T06:55:33.065Z,12.37
2023-05-20T07:00:57.711Z,12.47
2023-05-20T07:06:22.763Z,12.60
2023-05-20T07:11:50.704Z,12.67
2023-05-20T07:17:16.786Z,12.75
2023-05-20T07:22:42.857Z,12.84
2023-05-20T07:28:15.716Z,12.91
2023-05-20T07:33:41.774Z,13.04
2023-05-20T07:39:15.226Z,13.09
2023-05-20T07:44:43.712Z,13.16
2023-05-20T07:50:08.758Z,13.23
2023-05-20T07:55:33.870Z,13.30
2023-05-20T08:01:02.761Z,13.45
2023-05-20T08:06:30.885Z,13.46
2023-05-20T08:11:57.761Z,13.48
2023-05-20T08:17:25.801Z,13.47
2023-05-20T08:22:51.737Z,13.54
2023-05-20T08:28:16.767Z,13.67
2023-05-20T08:33:45.095Z,13.79
2023-05-20T08:39:16.826Z,14.01
2023-05-20T08:44:43.001Z,14.28
2023-05-20T08:50:10.781Z,14.57
2023-05-20T08:55:40.770Z,14.79
2023-05-20T09:01:10.616Z,15.04
2023-05-20T09:06:38.786Z,15.22
2023-05-20T09:12:20.808Z,15.55
2023-05-20T09:17:46.878Z,15.76
2023-05-20T09:23:16.807Z,15.85
2023-05-20T09:28:44.914Z,15.98
2023-05-20T09:34:09.835Z,16.08
2023-05-20T09:39:48.813Z,16.10
2023-05-20T09:45:18.839Z,16.38
2023-05-20T09:50:44.826Z,16.32
2023-05-20T09:56:12.875Z,16.39
2023-05-20T10:01:36.892Z,16.53
2023-05-20T10:07:20.960Z,16.63
2023-05-20T10:12:59.833Z,16.87
2023-05-20T10:18:39.828Z,17.12
2023-05-20T10:24:03.828Z,17.31
2023-05-20T10:29:31.951Z,17.46
2023-05-20T10:35:04.869Z,17.65
2023-05-20T10:40:32.058Z,17.84
2023-05-20T10:46:17.137Z,17.93
2023-05-20T10:51:46.836Z,18.05
2023-05-20T10:57:12.918Z,18.16
2023-05-20T11:02:41.028Z,18.27
2023-05-20T11:08:13.745Z,18.34
2023-05-20T11:13:49.915Z,18.69
2023-05-20T11:19:17.897Z,19.03
2023-05-20T11:24:42.851Z,19.16
2023-05-20T11:30:06.876Z,19.28
2023-05-20T11:35:36.885Z,19.31
2023-05-20T11:41:09.905Z,19.35
2023-05-20T11:46:34.961Z,19.18
2023-05-20T11:52:01.856Z,18.90
2023-05-20T11:57:26.895Z,18.66
2023-05-20T12:02:51.069Z,18.51
2023-05-20T12:08:18.911Z,18.40
2023-05-20T12:13:42.932Z,18.38
2023-05-20T12:19:07.947Z,18.31
2023-05-20T12:24:34.905Z,18.30
2023-05-20T12:29:59.893Z,18.23
2023-05-20T12:35:25.985Z,18.14
2023-05-20T12:40:59.907Z,18.38
2023-05-20T12:46:24.960Z,18.79
2023-05-20T12:51:49.947Z,18.94
2023-05-20T12:57:17.917Z,19.09
2023-05-20T13:02:42.049Z,19.43
2023-05-20T13:08:06.924Z,19.76
2023-05-20T13:13:35.938Z,20.23
2023-05-20T13:19:00.985Z,20.20
2023-05-20T13:24:25.947Z,20.38
2023-05-20T13:29:53.927Z,20.44
2023-05-20T13:35:19.939Z,20.77
2023-05-20T13:40:50.979Z,21.08
2023-05-20T13:46:18.976Z,21.34
2023-05-20T13:51:43.069Z,21.57
2023-05-20T13:57:08.248Z,21.85
2023-05-20T14:02:36.003Z,22.10
2023-05-20T14:08:00.955Z,22.30
2023-05-20T14:13:24.974Z,22.50
2023-05-20T14:18:53.031Z,22.55
2023-05-20T14:24:17.008Z,22.65
2023-05-20T14:29:42.070Z,22.67
2023-05-20T14:35:09.985Z,22.82
2023-05-20T14:40:40.976Z,22.88
2023-05-20T14:46:05.985Z,22.98
2023-05-20T14:51:34.016Z,23.29
2023-05-20T14:56:58.994Z,22.87
2023-05-20T15:02:24.086Z,23.04
2023-05-20T15:07:52.037Z,22.94
2023-05-20T15:13:16.021Z,22.94
2023-05-20T15:18:41.061Z,22.90
2023-05-20T15:24:09.067Z,22.82
2023-05-20T15:29:41.081Z,22.63
2023-05-20T15:35:06.058Z,22.64
2023-05-20T15:40:33.268Z,22.42
2023-05-20T15:45:58.134Z,22.40
2023-05-20T15:51:22.032Z,22.55
2023-05-20T15:56:50.043Z,22.49
2023-05-20T16:02:14.158Z,22.49
2023-05-20T16:07:41.090Z,22.47
2023-05-20T16:13:09.225Z,22.62
2023-05-20T16:18:36.042Z,22.29
2023-05-20T16:24:02.070Z,22.29
2023-05-20T16:29:30.095Z,21.93
2023-05-20T16:34:54.168Z,21.69
2023-05-20T16:40:26.069Z,21.58
2023-05-20T16:45:54.226Z,21.49
2023-05-20T16:51:18.071Z,21.39
2023-05-20T16:56:43.129Z,21.22
2023-05-20T17:02:10.123Z,21.13
2023-05-20T17:07:35.093Z,20.96
2023-05-20T17:12:59.162Z,20.73
2023-05-20T17:18:27.137Z,20.60
2023-05-20T17:23:51.087Z,20.48
2023-05-20T17:29:16.113Z,20.35
2023-05-20T17:34:43.280Z,20.22
2023-05-20T17:40:15.133Z,20.14
2023-05-20T17:45:40.194Z,20.01
2023-05-20T17:51:07.135Z,19.92
2023-05-20T17:56:33.165Z,19.77
2023-05-20T18:01:58.187Z,19.66
2023-05-20T18:07:27.193Z,19.52
2023-05-20T18:12:52.179Z,19.37
2023-05-20T18:18:18.184Z,19.26
2023-05-20T18:23:45.160Z,19.17
2023-05-20T18:29:10.170Z,19.06
2023-05-20T18:34:35.148Z,18.94
2023-05-20T18:40:05.180Z,18.81
2023-05-20T18:45:31.239Z,18.70
2023-05-20T18:50:56.188Z,18.57
2023-05-20T18:56:24.171Z,18.43
2023-05-20T19:01:49.170Z,18.27
2023-05-20T19:07:14.228Z,18.13
2023-05-20T19:12:42.166Z,17.96
2023-05-20T19:18:08.213Z,17.80
2023-05-20T19:23:33.209Z,17.68
2023-05-20T19:29:00.220Z,17.53
2023-05-20T19:34:25.359Z,17.39
2023-05-20T19:39:49.237Z,17.24
2023-05-20T19:45:18.204Z,17.15
2023-05-20T19:50:43.220Z,17.02
2023-05-20T19:56:08.240Z,16.97
2023-05-20T20:01:35.296Z,16.90
2023-05-20T20:07:00.268Z,16.85
2023-05-20T20:12:24.240Z,16.71
2023-05-20T20:17:58.326Z,16.59
2023-05-20T20:23:23.221Z,16.43
2023-05-20T20:28:48.271Z,16.28
2023-05-20T20:34:15.521Z,16.15
2023-05-20T20:39:41.213Z,16.02
2023-05-20T20:45:09.225Z,15.94
2023-05-20T20:50:38.248Z,15.94
2023-05-20T20:56:03.270Z,15.82
2023-05-20T21:01:28.342Z,15.78
2023-05-20T21:06:58.965Z,15.71
2023-05-20T21:12:25.309Z,15.65
2023-05-20T21:17:49.384Z,15.60
2023-05-20T21:23:17.287Z,15.60
2023-05-20T21:28:43.274Z,15.50
2023-05-20T21:34:08.271Z,15.42
2023-05-20T21:39:35.347Z,15.37
2023-05-20T21:45:00.313Z,15.30
2023-05-20T21:50:27.401Z,15.19
2023-05-20T21:55:56.470Z,15.13
2023-05-20T22:01:21.391Z,15.01
2023-05-20T22:06:46.582Z,14.93
2023-05-20T22:12:14.301Z,14.85
2023-05-20T22:17:40.331Z,14.81
2023-05-20T22:23:06.308Z,14.74
2023-05-20T22:28:34.288Z,14.70
2023-05-20T22:33:58.506Z,14.64
2023-05-20T22:39:23.332Z,14.61
2023-05-20T22:44:50.326Z,14.54
2023-05-20T22:50:20.409Z,14.48
2023-05-20T22:55:45.345Z,14.42
2023-05-20T23:01:13.417Z,14.42
2023-05-20T23:06:38.392Z,14.38
2023-05-20T23:12:03.355Z,14.36
2023-05-20T23:17:30.369Z,14.30
2023-05-20T23:22:55.366Z,14.27
2023-05-20T23:28:21.430Z,14.23
2023-05-20T23:33:49.700Z,14.18
2023-05-20T23:39:16.251Z,14.15
2023-05-20T23:44:43.345Z,14.11
2023-05-20T23:50:10.396Z,14.07
2023-05-20T23:55:35.751Z,14.03
